Time;durP1;ratioP1;P1;durP2;ratioP2;P2;SDS_P1;SDS_P2;PMS_P1;PMS_P2;Temp;Humidity;BMP_temperature;BMP_pressure;BME280_temperature;BME280_humidity;BME280_pressure;Samples;Min_cycle;Max_cycle;Signal;HPM_P1;HPM_P2
2022/12/23 00:01:50;;;;;;;0.77;0.40;;;10.00;99.90;;;9.54;100.00;96603.13;4965208;28;20158;-74
2022/12/23 00:04:17;;;;;;;1.23;0.60;;;;;;;9.59;100.00;96595.09;4963354;28;20150;-74
2022/12/23 00:06:44;;;;;;;1.10;0.50;;;10.20;99.90;;;9.63;100.00;96612.16;4962124;28;20499;-74
2022/12/23 00:09:11;;;;;;;0.75;0.50;;;10.20;99.90;;;9.72;100.00;96619.44;4963057;28;20055;-74
2022/12/23 00:15:04;;;;;;;0.82;0.60;;;10.20;99.90;;;9.79;100.00;96605.22;4964574;28;20074;-74
2022/12/23 00:17:10;;;;;;;0.95;0.50;;;10.40;99.90;;;9.78;100.00;96618.25;4962296;28;20501;-73
2022/12/23 00:19:48;;;;;;;0.73;0.40;;;10.40;99.90;;;9.73;100.00;96615.91;4962516;28;20129;-74
2022/12/23 00:22:15;;;;;;;1.38;0.32;;;10.40;99.90;;;9.74;100.00;96620.19;4963437;28;20425;-74
2022/12/23 00:24:43;;;;;;;0.93;0.52;;;;;;;9.74;100.00;96609.81;4965926;28;20093;-74
2022/12/23 00:27:10;;;;;;;0.95;0.40;;;;;;;9.77;100.00;96616.59;4960527;28;20051;-75
2022/12/23 00:29:38;;;;;;;0.30;0.30;;;;;;;9.77;100.00;96617.44;4960953;28;20073;-74
2022/12/23 00:32:04;;;;;;;0.70;0.50;;;10.40;99.90;;;9.79;100.00;96628.53;4963787;28;20055;-74
2022/12/23 00:34:32;;;;;;;2.10;0.60;;;10.40;99.90;;;9.80;100.00;96631.97;4961185;28;20528;-75
2022/12/23 00:36:58;;;;;;;0.77;0.45;;;10.40;99.90;;;9.90;100.00;96622.78;4960803;28;20115;-75
2022/12/23 00:45:14;;;;;;;1.13;0.50;;;10.50;99.90;;;10.08;100.00;96633.03;4960995;28;20050;-74
2022/12/23 00:50:29;;;;;;;2.05;0.52;;;10.70;99.90;;;10.28;100.00;96637.94;4962774;28;20365;-74
2022/12/23 00:52:56;;;;;;;1.58;0.57;;;10.80;99.90;;;10.25;100.00;96654.50;4981586;28;20062;-74
2022/12/23 00:55:24;;;;;;;0.52;0.30;;;10.80;99.90;;;10.30;100.00;96640.50;4962176;28;20047;-74
2022/12/23 00:57:51;;;;;;;0.90;0.38;;;10.90;99.90;;;10.28;100.00;96637.94;4967042;28;20054;-74
2022/12/23 01:00:18;;;;;;;0.50;0.30;;;10.90;99.90;;;10.33;100.00;96653.28;4965914;28;20042;-74
2022/12/23 01:05:37;;;;;;;1.02;0.40;;;10.90;99.90;;;10.40;100.00;96652.88;4963882;28;20129;-74
2022/12/23 01:08:07;;;;;;;0.47;0.30;;;11.00;99.90;;;10.42;100.00;96663.13;4964134;28;20077;-74
2022/12/23 01:10:36;;;;;;;0.63;0.30;;;10.90;99.90;;;10.42;100.00;96660.53;4965209;28;20054;-73
2022/12/23 01:13:04;;;;;;;0.75;0.30;;;10.90;99.90;;;10.50;100.00;96667.91;4964076;28;20094;-73
2022/12/23 01:15:33;;;;;;;0.95;0.30;;;10.90;99.90;;;10.52;100.00;96666.06;4961872;28;20050;-73
2022/12/23 01:18:00;;;;;;;0.73;0.38;;;11.00;99.90;;;10.47;100.00;96655.94;4963475;28;20157;-73
2022/12/23 01:20:27;;;;;;;1.30;0.30;;;11.00;99.90;;;10.54;100.00;96659.84;4966950;28;20632;-73
2022/12/23 01:22:53;;;;;;;1.13;0.40;;;11.00;99.90;;;10.51;100.00;96674.75;4961648;28;20047;-73
2022/12/23 01:25:20;;;;;;;1.40;0.40;;;11.00;99.90;;;10.45;100.00;96643.06;4964031;28;20053;-73
2022/12/23 01:27:47;;;;;;;0.73;0.40;;;11.00;99.90;;;10.51;100.00;96654.81;4964608;28;20750;-73
2022/12/23 01:30:14;;;;;;;1.15;0.47;;;11.00;99.90;;;10.45;100.00;96643.06;4974982;28;20047;-73
2022/12/23 01:32:41;;;;;;;1.25;0.40;;;10.90;99.90;;;10.46;100.00;96649.06;4963266;28;20141;-73
2022/12/23 01:35:08;;;;;;;1.73;0.40;;;10.90;99.90;;;10.49;100.00;96648.06;4962760;28;20837;-73
2022/12/23 01:37:35;;;;;;;3.08;0.40;;;11.00;99.90;;;10.44;100.00;96650.91;4964488;28;20708;-73
2022/12/23 01:40:02;;;;;;;3.38;0.50;;;10.90;99.90;;;10.43;100.00;96654.44;4964847;28;20517;-73
2022/12/23 01:42:45;;;;;;;1.92;0.50;;;11.00;99.90;;;10.52;100.00;96663.47;4964722;28;20090;-73
2022/12/23 01:45:15;;;;;;;0.98;0.40;;;10.90;99.90;;;10.52;100.00;96660.88;4959746;28;20468;-73
2022/12/23 01:48:03;;;;;;;3.13;0.50;;;11.10;99.90;;;10.52;100.00;96653.09;4963050;28;20347;-73
2022/12/23 01:50:58;;;;;;;1.48;0.50;;;11.10;99.90;;;10.54;100.00;96664.22;4958969;28;20050;-73
2022/12/23 01:53:33;;;;;;;0.65;0.40;;;11.20;99.90;;;10.52;100.00;96663.47;4982083;28;20574;-73
2022/12/23 01:56:08;;;;;;;0.93;0.50;;;11.20;99.90;;;10.47;100.00;96648.16;4964868;28;20050;-73
2022/12/23 01:58:40;;;;;;;1.45;0.47;;;11.20;99.90;;;10.46;100.00;96659.44;4961329;28;20044;-73
2022/12/23 02:03:59;;;;;;;1.40;0.50;;;11.20;99.90;;;10.42;100.00;96676.97;4979969;28;20139;-73
2022/12/23 02:09:29;;;;;;;1.25;0.43;;;11.20;99.90;;;10.38;100.00;96678.06;4932845;28;20051;-73
2022/12/23 02:12:15;;;;;;;1.05;0.47;;;11.10;99.90;;;10.34;100.00;96692.09;4966831;28;20055;-73
2022/12/23 02:18:56;;;;;;;1.23;0.40;;;11.00;99.90;;;10.20;100.00;96690.25;4965996;28;20051;-73
2022/12/23 02:22:34;;;;;;;1.27;0.50;;;11.00;99.90;;;10.16;100.00;96678.38;4967204;28;20501;-73
2022/12/23 02:25:19;;;;;;;1.00;0.40;;;10.90;99.90;;;10.09;100.00;96678.81;4937107;28;20043;-73
2022/12/23 02:28:30;;;;;;;0.80;0.40;;;10.90;99.90;;;10.02;100.00;96688.66;4964658;28;20420;-73
2022/12/23 02:31:18;;;;;;;0.60;0.30;;;10.80;99.90;;;9.96;100.00;96694.19;4966246;28;20047;-73
2022/12/23 02:34:16;;;;;;;1.15;0.40;;;10.70;99.90;;;9.95;100.00;96685.56;4979694;28;20054;-73
2022/12/23 02:36:52;;;;;;;1.70;0.30;;;10.70;99.90;;;9.95;100.00;96692.53;4979641;28;20050;-73
2022/12/23 02:39:34;;;;;;;0.30;0.28;;;10.70;99.90;;;9.95;100.00;96695.94;4949140;28;20532;-72
2022/12/23 02:42:10;;;;;;;1.13;0.40;;;10.70;99.90;;;9.97;100.00;96695.88;4967921;28;20051;-73
2022/12/23 02:45:09;;;;;;;1.10;0.30;;;10.80;99.90;;;10.01;100.00;96711.19;4961807;28;20055;-73
2022/12/23 02:47:43;;;;;;;3.70;0.32;;;10.80;99.90;;;10.00;100.00;96704.31;4977864;28;20066;-73
2022/12/23 02:50:20;;;;;;;0.47;0.20;;;10.70;99.90;;;9.93;100.00;96692.59;4958926;28;20425;-73
2022/12/23 02:52:50;;;;;;;0.88;0.30;;;10.70;99.90;;;9.90;100.00;96715.25;4979493;28;20493;-73
2022/12/23 02:55:32;;;;;;;0.93;0.30;;;10.60;99.90;;;9.89;100.00;96711.00;4979266;28;20050;-72
2022/12/23 02:58:05;;;;;;;0.40;0.30;;;10.60;99.90;;;9.83;100.00;96701.81;4962803;28;20050;-73
2022/12/23 03:00:32;;;;;;;;;;;10.50;99.90;;;9.86;100.00;96714.59;4976154;28;20058;-73
2022/12/23 03:02:59;;;;;;;0.77;0.30;;;10.60;99.90;;;9.79;100.00;96711.47;4978201;28;20608;-73
2022/12/23 03:05:41;;;;;;;0.55;0.30;;;10.50;99.90;;;9.74;100.00;96718.66;4963774;28;20066;-73
2022/12/23 03:08:31;;;;;;;0.40;0.30;;;10.50;99.90;;;9.80;100.00;96712.31;4964336;28;20051;-72
2022/12/23 03:11:16;;;;;;;0.50;0.30;;;10.50;99.90;;;9.80;100.00;96712.31;4965405;28;20051;-73
2022/12/23 03:14:10;;;;;;;0.82;0.20;;;10.50;99.90;;;9.77;100.00;96721.09;4961785;28;20061;-73
2022/12/23 03:17:08;;;;;;;0.47;0.20;;;10.50;99.90;;;9.77;100.00;96717.66;4965009;28;20070;-74
2022/12/23 03:19:40;;;;;;;0.30;0.20;;;10.50;99.90;;;9.81;100.00;96721.78;4965522;28;20039;-72
2022/12/23 03:22:33;;;;;;;0.65;0.22;;;10.50;99.90;;;9.74;100.00;96729.03;4963439;28;20047;-73
2022/12/23 03:25:23;;;;;;;1.60;0.30;;;10.60;99.90;;;9.77;100.00;96718.50;4963051;28;20162;-72
2022/12/23 03:28:04;;;;;;;0.50;0.20;;;10.50;99.90;;;9.73;100.00;96721.34;4979882;28;20080;-73
2022/12/23 03:30:33;;;;;;;2.45;0.20;;;10.50;99.90;;;9.62;100.00;96719.28;4961107;28;20053;-72
2022/12/23 03:33:15;;;;;;;0.80;0.30;;;10.40;99.90;;;9.63;100.00;96729.59;4958344;28;20058;-73
2022/12/23 03:35:49;;;;;;;0.40;0.30;;;10.30;99.90;;;9.68;100.00;96731.13;4960483;28;20420;-73
2022/12/23 03:38:18;;;;;;;0.50;0.22;;;10.20;99.90;;;9.61;100.00;96743.53;4963099;28;20069;-73
2022/12/23 03:40:56;;;;;;;0.47;0.30;;;10.20;99.90;;;9.58;100.00;96738.53;4962946;28;20050;-73
2022/12/23 03:43:32;;;;;;;0.93;0.30;;;10.10;99.90;;;9.58;100.00;96743.72;4962264;28;20059;-73
2022/12/23 03:46:24;;;;;;;0.40;0.20;;;10.20;99.90;;;9.61;100.00;96748.72;4961513;28;20055;-72
2022/12/23 03:49:04;;;;;;;1.05;0.30;;;10.20;99.90;;;9.66;100.00;96756.25;4965886;28;20078;-73
2022/12/23 03:51:49;;;;;;;2.92;0.60;;;10.20;99.90;;;9.65;100.00;96758.03;4965513;28;20514;-72
2022/12/23 03:54:23;;;;;;;1.17;0.80;;;10.20;99.90;;;9.66;100.00;96749.31;4962288;28;20052;-73
2022/12/23 03:57:00;;;;;;;2.22;0.50;;;10.20;99.90;;;9.65;100.00;96745.06;4978462;28;20054;-72
2022/12/23 03:59:33;;;;;;;1.25;0.30;;;10.20;99.90;;;9.69;100.00;96745.72;4980312;28;20078;-73
2022/12/23 04:02:19;;;;;;;;;;;10.20;99.90;;;9.70;100.00;96747.41;4982614;28;20482;-73
2022/12/23 04:05:20;;;;;;;1.33;0.30;;;10.30;99.90;;;9.79;100.00;96759.91;4978714;28;19926;-73
2022/12/23 04:08:08;;;;;;;1.65;0.40;;;10.30;99.90;;;9.74;100.00;96759.28;4966133;28;20166;-73
2022/12/23 04:10:35;;;;;;;2.20;0.40;;;10.30;99.90;;;9.68;100.00;96757.84;4963704;28;20055;-72
2022/12/23 04:13:02;;;;;;;1.30;0.50;;;10.30;99.90;;;9.58;100.00;96773.03;4978144;28;20061;-73
2022/12/23 04:15:29;;;;;;;2.05;0.40;;;10.30;99.90;;;9.71;100.00;96767.22;4961767;28;20797;-73
2022/12/23 04:17:57;;;;;;;1.88;0.40;;;10.30;99.90;;;9.60;100.00;96775.53;4963815;28;20046;-73
2022/12/23 04:20:24;;;;;;;1.23;0.47;;;10.30;99.90;;;9.74;100.00;96770.50;4966763;28;20047;-73
2022/12/23 04:22:51;;;;;;;1.17;0.30;;;10.30;99.90;;;9.75;100.00;96779.94;4982487;28;20117;-72
2022/12/23 04:25:18;;;;;;;1.30;0.35;;;10.30;99.90;;;9.74;100.00;96782.59;4968129;28;20483;-73
2022/12/23 04:27:45;;;;;;;0.90;0.50;;;10.30;99.90;;;9.82;100.00;96783.88;4968309;28;20057;-73
2022/12/23 04:30:13;;;;;;;1.60;0.63;;;10.30;99.90;;;9.74;100.00;96793.81;4969415;28;20146;-73
2022/12/23 04:32:41;;;;;;;1.48;0.60;;;10.30;99.90;;;9.74;100.00;96788.63;4981105;28;20531;-73
2022/12/23 04:35:10;;;;;;;1.65;0.60;;;10.30;99.90;;;9.68;100.00;96786.34;4964720;28;20047;-72
2022/12/23 04:37:37;;;;;;;2.20;0.70;;;10.40;99.90;;;9.64;100.00;96790.00;4966685;28;20916;-73
2022/12/23 04:40:06;;;;;;;3.40;0.90;;;10.30;99.90;;;9.63;100.00;96788.34;4967072;28;20065;-73
2022/12/23 04:42:33;;;;;;;2.45;0.70;;;10.30;99.90;;;9.62;100.00;96792.72;4966371;28;20050;-72
2022/12/23 04:45:01;;;;;;;3.40;1.00;;;10.30;99.90;;;9.55;100.00;96793.09;4968176;28;20051;-72
2022/12/23 04:47:28;;;;;;;4.18;1.10;;;10.40;99.90;;;9.54;100.00;96799.19;4967785;28;20055;-72
2022/12/23 04:49:54;;;;;;;1.10;0.70;;;10.40;99.90;;;9.54;100.00;96800.03;4968431;28;20070;-72
2022/12/23 04:52:22;;;;;;;3.90;0.80;;;10.40;99.90;;;9.61;100.00;96792.78;4969887;28;20050;-72
2022/12/23 04:54:49;;;;;;;2.10;0.98;;;10.30;99.90;;;9.63;100.00;96785.75;4966356;28;20134;-72
2022/12/23 04:57:16;;;;;;;1.95;0.68;;;10.30;99.90;;;9.57;100.00;96783.47;4966664;28;20039;-72
2022/12/23 04:59:43;;;;;;;1.23;0.57;;;10.30;99.90;;;9.57;100.00;96780.88;4965618;28;20057;-72
2022/12/23 05:02:10;;;;;;;1.98;0.75;;;10.30;99.90;;;9.53;100.00;96785.38;4968644;28;20062;-73
2022/12/23 05:04:37;;;;;;;1.60;0.65;;;10.20;99.90;;;9.56;100.00;96790.41;4964982;28;20050;-74
2022/12/23 05:07:04;;;;;;;1.23;0.68;;;10.20;99.90;;;9.51;100.00;96788.97;4968502;28;20576;-73
2022/12/23 05:09:31;;;;;;;1.88;0.70;;;10.20;99.90;;;9.50;100.00;96802.84;4968351;28;20054;-72
2022/12/23 05:11:58;;;;;;;1.60;0.75;;;10.20;99.90;;;9.56;100.00;96789.59;4968790;28;20058;-72
2022/12/23 05:14:25;;;;;;;1.50;0.93;;;10.30;99.90;;;9.58;100.00;96795.53;4979703;28;20574;-72
2022/12/23 05:16:52;;;;;;;2.33;0.80;;;10.30;99.90;;;9.61;100.00;96801.38;4968123;28;20607;-73
2022/12/23 05:19:19;;;;;;;1.60;0.68;;;10.30;99.90;;;9.61;100.00;96798.78;4967932;28;20057;-72
2022/12/23 05:21:46;;;;;;;1.38;0.70;;;10.30;99.90;;;9.57;100.00;96806.78;4967340;28;20042;-73
2022/12/23 05:24:13;;;;;;;1.92;0.70;;;10.40;99.90;;;9.73;100.00;96806.84;4966055;28;20173;-73
2022/12/23 05:26:40;;;;;;;0.93;0.70;;;10.40;99.90;;;9.75;100.00;96812.78;4967499;28;20059;-72
2022/12/23 05:29:14;;;;;;;1.20;0.73;;;10.40;99.90;;;9.68;100.00;96809.69;4968031;28;20472;-72
2022/12/23 05:31:41;;;;;;;1.48;1.00;;;10.30;99.90;;;9.62;100.00;96821.22;4981832;28;20065;-73
2022/12/23 05:34:08;;;;;;;3.17;0.70;;;10.40;99.90;;;9.66;100.00;96802.91;4960095;28;20133;-73
2022/12/23 05:36:35;;;;;;;1.02;0.70;;;10.30;99.90;;;9.58;100.00;96806.72;4980063;28;20046;-73
2022/12/23 05:39:02;;;;;;;1.58;0.88;;;10.30;99.90;;;9.55;100.00;96809.47;4967318;28;20537;-72
2022/12/23 05:41:29;;;;;;;2.05;0.90;;;10.20;99.90;;;9.53;100.00;96813.03;4968727;28;20113;-73
2022/12/23 05:43:56;;;;;;;2.58;1.08;;;10.20;99.90;;;9.50;100.00;96808.03;4965961;28;20616;-72
2022/12/23 05:46:23;;;;;;;3.95;0.82;;;10.20;99.90;;;9.53;100.00;96806.09;4967010;28;20047;-72
2022/12/23 05:48:53;;;;;;;2.22;1.10;;;10.10;99.90;;;9.56;100.00;96810.31;4965441;28;20056;-73
2022/12/23 05:51:20;;;;;;;2.45;1.42;;;10.10;99.90;;;9.51;100.00;96809.69;4966103;28;20053;-72
2022/12/23 05:53:47;;;;;;;1.73;1.15;;;10.10;99.90;;;9.58;100.00;96816.25;4967357;28;20157;-73
2022/12/23 05:56:14;;;;;;;3.10;2.00;;;10.10;99.90;;;9.48;100.00;96825.41;4967000;28;20069;-72
2022/12/23 05:58:41;;;;;;;3.97;1.80;;;10.10;99.90;;;9.50;100.00;96833.94;4966169;28;20058;-72
2022/12/23 06:01:07;;;;;;;3.63;1.60;;;10.10;99.90;;;9.49;100.00;96822.75;4967124;28;20046;-72
2022/12/23 06:03:34;;;;;;;2.92;1.52;;;10.10;99.90;;;9.54;100.00;96822.50;4981396;28;20047;-73
2022/12/23 06:06:01;;;;;;;3.10;1.25;;;10.00;99.90;;;9.44;100.00;96824.69;4965806;28;20050;-72
2022/12/23 06:08:28;;;;;;;3.20;1.40;;;10.00;99.90;;;9.42;100.00;96829.16;4968450;28;20061;-73
2022/12/23 06:10:55;;;;;;;6.53;2.75;;;9.90;99.90;;;9.30;100.00;96821.97;4965858;28;20684;-73
2022/12/23 06:13:22;;;;;;;3.00;1.63;;;9.90;99.90;;;9.36;100.00;96832.03;4963812;28;20050;-73
2022/12/23 06:15:49;;;;;;;4.10;2.05;;;9.90;99.90;;;9.35;100.00;96826.03;4964630;28;20047;-73
2022/12/23 06:18:16;;;;;;;2.80;1.40;;;9.90;99.90;;;9.38;100.00;96827.63;4980633;28;20878;-73
2022/12/23 06:20:47;;;;;;;2.00;1.00;;;;;;;9.36;100.00;96819.91;4960468;28;20050;-73
2022/12/23 06:23:14;;;;;;;1.42;0.80;;;9.90;99.90;;;9.28;100.00;96822.03;4965186;28;20047;-73
2022/12/23 06:25:41;;;;;;;4.78;0.80;;;9.80;99.90;;;9.34;100.00;96824.31;4964766;28;20517;-73
2022/12/23 06:28:08;;;;;;;1.40;0.70;;;9.80;99.90;;;9.32;100.00;96826.16;4966664;28;20565;-73
2022/12/23 06:30:35;;;;;;;2.60;0.85;;;9.90;99.90;;;9.27;100.00;96835.91;4967326;28;20050;-72
2022/12/23 06:33:02;;;;;;;1.50;0.70;;;9.90;99.90;;;9.35;100.00;96838.97;4966061;28;20050;-73
2022/12/23 06:35:29;;;;;;;3.38;0.90;;;9.90;99.90;;;9.43;100.00;96838.59;4965890;28;20140;-73
2022/12/23 06:37:56;;;;;;;2.22;0.82;;;10.00;99.90;;;9.40;100.00;96839.56;4962178;28;20672;-73
2022/12/23 06:40:22;;;;;;;3.30;0.63;;;10.00;99.90;;;9.35;100.00;96844.16;4966629;28;20572;-73
2022/12/23 06:42:49;;;;;;;1.75;0.73;;;10.00;99.90;;;9.42;100.00;96839.50;4981672;28;20513;-73
2022/12/23 06:45:16;;;;;;;3.30;0.70;;;10.10;99.90;;;9.45;100.00;96834.16;4965744;28;20058;-73
2022/12/23 06:47:44;;;;;;;2.70;0.80;;;10.10;99.90;;;9.49;100.00;96840.88;4966329;28;20101;-73
2022/12/23 06:50:11;;;;;;;1.35;0.43;;;10.10;99.90;;;9.48;100.00;96835.75;4962783;28;20065;-74
2022/12/23 06:52:37;;;;;;;0.93;0.40;;;10.10;99.90;;;9.50;100.00;96846.88;4963559;28;20080;-73
2022/12/23 06:55:05;;;;;;;4.25;0.70;;;10.20;99.90;;;9.47;100.00;96832.34;4964695;28;20043;-73
2022/12/23 06:57:32;;;;;;;1.70;0.50;;;10.20;99.90;;;9.53;100.00;96826.81;4968720;28;20846;-73
2022/12/23 06:59:59;;;;;;;2.33;0.50;;;10.30;99.90;;;9.51;100.00;96820.06;4979405;28;20047;-73
2022/12/23 07:02:26;;;;;;;2.13;0.50;;;10.30;99.90;;;9.61;100.00;96811.75;4966657;28;20173;-72
2022/12/23 07:04:53;;;;;;;2.22;0.57;;;10.20;99.90;;;9.58;100.00;96811.91;4965609;28;20105;-73
2022/12/23 07:07:20;;;;;;;0.60;0.40;;;10.20;99.90;;;9.47;100.00;96803.00;4967110;28;20056;-72
2022/12/23 07:09:46;;;;;;;1.65;0.52;;;10.30;99.90;;;9.41;100.00;96810.16;4961941;28;20051;-73
2022/12/23 07:12:13;;;;;;;0.90;0.50;;;10.30;99.90;;;9.50;100.00;96808.03;4978927;28;20169;-72
2022/12/23 07:14:40;;;;;;;1.30;0.55;;;10.30;99.90;;;9.51;100.00;96804.50;4964944;28;20650;-73
2022/12/23 07:17:07;;;;;;;1.08;0.50;;;10.30;99.90;;;9.52;100.00;96819.97;4964861;28;20054;-73
2022/12/23 07:19:34;;;;;;;6.55;0.60;;;10.20;99.90;;;9.41;100.00;96817.09;4977813;28;20042;-72
2022/12/23 07:22:02;;;;;;;2.05;0.70;;;10.30;99.90;;;9.43;100.00;96810.91;4965315;28;20046;-74
2022/12/23 07:24:29;;;;;;;4.05;0.73;;;10.30;99.90;;;9.55;100.00;96812.03;4966979;28;20079;-73
2022/12/23 07:26:56;;;;;;;1.75;0.55;;;10.30;99.90;;;9.51;100.00;96822.63;4966090;28;20066;-72
2022/12/23 07:29:23;;;;;;;1.65;0.82;;;10.20;99.90;;;9.42;100.00;96823.97;4964846;28;20045;-73
2022/12/23 07:31:50;;;;;;;2.22;0.63;;;10.30;99.90;;;9.39;100.00;96834.47;4963122;28;20047;-72
2022/12/23 07:34:17;;;;;;;1.33;0.60;;;10.20;99.90;;;9.47;100.00;96836.69;4965161;28;20149;-73
2022/12/23 07:36:44;;;;;;;1.20;0.60;;;10.20;99.90;;;9.39;100.00;96840.47;4963855;28;20066;-72
2022/12/23 07:39:11;;;;;;;3.83;0.70;;;10.20;99.90;;;9.38;100.00;96848.34;4966597;28;20881;-72
2022/12/23 07:41:38;;;;;;;1.50;0.60;;;10.20;99.90;;;9.40;100.00;96846.50;4965096;28;20098;-73
2022/12/23 07:44:07;;;;;;;1.45;1.00;;;10.20;99.90;;;9.48;100.00;96849.53;4981803;28;20118;-73
2022/12/23 07:46:34;;;;;;;1.98;0.88;;;10.10;99.90;;;9.54;100.00;96856.19;4962573;28;20051;-73
2022/12/23 07:49:01;;;;;;;2.75;1.05;;;10.10;99.90;;;9.49;100.00;96861.59;4965793;28;20055;-73
2022/12/23 07:51:28;;;;;;;2.08;1.10;;;10.10;99.90;;;9.54;100.00;96851.84;4967003;28;20061;-73
2022/12/23 07:53:56;;;;;;;4.70;2.22;;;10.10;99.90;;;9.43;100.00;96856.72;4978802;28;20054;-73
2022/12/23 07:56:22;;;;;;;3.90;1.30;;;10.10;99.90;;;9.51;100.00;96856.31;4982764;28;20050;-72
2022/12/23 07:58:51;;;;;;;4.80;1.83;;;10.20;99.90;;;9.50;100.00;96846.88;4984587;28;20046;-73
2022/12/23 08:01:20;;;;;;;3.78;2.00;;;10.30;99.90;;;9.64;100.00;96834.91;4984175;28;20051;-73
2022/12/23 08:03:47;;;;;;;4.75;1.65;;;10.30;99.90;;;9.59;100.00;96829.13;4969400;28;20055;-73
2022/12/23 08:06:15;;;;;;;3.83;2.53;;;10.30;99.90;;;9.60;100.00;96828.22;4968925;28;20051;-73
2022/12/23 08:08:44;;;;;;;4.07;1.70;;;10.30;99.90;;;9.56;100.00;96839.66;4968676;28;20058;-73
2022/12/23 08:11:14;;;;;;;4.43;1.50;;;10.30;99.90;;;9.65;100.00;96825.41;4965983;28;20098;-73
2022/12/23 08:13:43;;;;;;;5.40;1.73;;;10.40;99.90;;;9.81;100.00;96834.06;4969797;28;20145;-73
2022/12/23 08:16:10;;;;;;;6.80;1.80;;;10.30;99.90;;;9.54;100.00;96841.47;4963684;28;20472;-73
2022/12/23 08:18:40;;;;;;;3.85;1.63;;;10.40;99.90;;;9.61;100.00;96835.06;4983132;28;20039;-73
2022/12/23 08:21:17;;;;;;;2.75;1.48;;;10.50;99.90;;;9.61;100.00;96827.28;4985893;28;20059;-73
2022/12/23 08:23:46;;;;;;;6.20;1.63;;;10.50;99.90;;;9.57;100.00;96828.34;4968942;28;20050;-72
2022/12/23 08:26:23;;;;;;;4.30;1.48;;;10.50;99.90;;;9.71;100.00;96826.81;4966476;28;20059;-72
2022/12/23 08:28:54;;;;;;;4.60;2.28;;;10.60;99.90;;;9.70;100.00;96826.00;4967364;28;20089;-72
2022/12/23 08:31:30;;;;;;;6.43;2.10;;;10.60;99.90;;;9.69;100.00;96824.28;4982689;28;21525;-72
2022/12/23 08:33:59;;;;;;;4.10;1.98;;;10.50;99.90;;;9.72;100.00;96823.31;4980451;28;20421;-72
2022/12/23 08:36:33;;;;;;;3.05;1.45;;;10.60;99.90;;;9.68;100.00;96824.41;4967811;28;20535;-72
2022/12/23 08:39:05;;;;;;;2.92;1.40;;;10.50;99.90;;;9.72;100.00;96826.75;4984504;28;20062;-72
2022/12/23 08:41:36;;;;;;;5.57;1.55;;;10.50;99.90;;;9.73;100.00;96828.41;4961867;28;20126;-72
2022/12/23 08:44:03;;;;;;;3.60;1.63;;;10.50;99.90;;;9.76;100.00;96835.19;4969817;28;20061;-72
2022/12/23 08:46:30;;;;;;;5.07;1.80;;;10.50;99.90;;;9.71;100.00;96832.84;4967870;28;20633;-72
2022/12/23 08:48:58;;;;;;;2.75;1.33;;;10.60;99.90;;;9.77;100.00;96829.09;4964487;28;20138;-71
2022/12/23 08:51:25;;;;;;;5.32;1.90;;;10.50;99.90;;;9.68;100.00;96838.19;4965175;28;20054;-71
2022/12/23 08:53:56;;;;;;;3.38;1.73;;;10.60;99.90;;;9.72;100.00;96842.31;4966018;28;20056;-71
2022/12/23 08:56:32;;;;;;;4.00;2.17;;;10.50;99.90;;;9.74;100.00;96850.84;4980351;28;20495;-71
2022/12/23 08:58:59;;;;;;;6.63;2.47;;;10.50;99.90;;;9.73;100.00;96838.78;4967669;28;20050;-71
2022/12/23 09:01:29;;;;;;;5.15;2.15;;;10.60;99.90;;;9.74;100.00;96835.28;4965980;28;20082;-71
2022/12/23 09:03:57;;;;;;;6.15;3.20;;;10.60;99.90;;;9.76;100.00;96830.88;4967867;28;20082;-71
2022/12/23 09:06:32;;;;;;;4.70;2.22;;;10.60;99.90;;;9.86;100.00;96835.56;4965686;28;20058;-71
2022/12/23 09:08:58;;;;;;;6.93;1.67;;;10.60;99.90;;;9.93;100.00;96847.31;4969165;28;20054;-72
2022/12/23 09:11:27;;;;;;;4.50;1.70;;;10.60;99.90;;;9.84;100.00;96835.66;4983342;28;20050;-71
2022/12/23 09:13:57;;;;;;;4.68;1.30;;;10.60;99.90;;;9.91;100.00;96824.03;4964152;28;20619;-72
2022/12/23 09:16:24;;;;;;;3.75;1.45;;;10.50;99.90;;;9.78;100.00;96818.66;4965737;28;20042;-71
2022/12/23 09:18:51;;;;;;;3.78;1.40;;;10.60;99.90;;;9.80;100.00;96823.75;4968441;28;20104;-72
2022/12/23 09:21:21;;;;;;;4.35;1.83;;;10.60;99.90;;;9.81;100.00;96815.09;4966551;28;20058;-72
2022/12/23 09:23:49;;;;;;;6.03;2.20;;;10.60;99.90;;;9.87;100.00;96819.09;4968675;28;20051;-72
2022/12/23 09:26:26;;;;;;;3.80;1.58;;;10.60;99.90;;;9.74;100.00;96829.25;4964477;28;20165;-73
2022/12/23 09:28:54;;;;;;;4.10;1.17;;;10.60;99.90;;;9.85;100.00;96832.13;4964254;28;20149;-73
2022/12/23 09:31:22;;;;;;;4.03;1.90;;;10.50;99.90;;;9.72;100.00;96836.28;4966771;28;20093;-72
2022/12/23 09:33:52;;;;;;;5.97;3.60;;;10.50;99.90;;;9.80;100.00;96834.13;4965633;28;20112;-73
2022/12/23 09:36:21;;;;;;;6.57;3.47;;;10.50;99.90;;;9.70;100.00;96833.75;4965973;28;20042;-72
2022/12/23 09:38:56;;;;;;;4.03;2.08;;;10.50;99.90;;;9.79;100.00;96832.47;4964967;28;20050;-72
2022/12/23 09:41:48;;;;;;;7.47;2.55;;;10.50;99.90;;;9.90;100.00;96832.75;4966140;28;20101;-72
2022/12/23 09:44:29;;;;;;;7.05;3.45;;;10.50;99.90;;;9.75;100.00;96834.34;4982981;28;20117;-72
2022/12/23 09:47:01;;;;;;;2.78;1.35;;;10.50;99.90;;;9.86;100.00;96820.03;4967145;28;20583;-73
2022/12/23 09:49:28;;;;;;;4.70;2.85;;;10.40;99.90;;;9.73;100.00;96812.88;4968129;28;20054;-72
2022/12/23 09:52:04;;;;;;;6.80;2.20;;;10.50;99.90;;;9.91;100.00;96808.47;4968402;28;20135;-72
2022/12/23 09:54:41;;;;;;;3.38;1.50;;;10.50;99.90;;;9.97;100.00;96807.34;4964450;28;20425;-73
2022/12/23 09:57:21;;;;;;;4.15;2.33;;;10.50;99.90;;;10.02;100.00;96798.41;4981003;28;20117;-73
2022/12/23 10:00:11;;;;;;;1.80;1.02;;;10.70;99.90;;;10.03;100.00;96783.66;4967198;28;20046;-73
2022/12/23 10:03:14;;;;;;;2.63;1.30;;;10.60;99.90;;;10.00;100.00;96783.84;4965605;28;20042;-73
2022/12/23 10:06:09;;;;;;;2.78;1.30;;;10.60;99.90;;;9.96;100.00;96777.97;4964892;28;20128;-73
2022/12/23 10:08:44;;;;;;;2.33;1.25;;;10.60;99.90;;;10.04;100.00;96777.56;4964126;28;20525;-73
2022/12/23 10:11:52;;;;;;;2.90;1.63;;;10.70;99.90;;;10.10;100.00;96769.44;4967829;28;20050;-74
2022/12/23 10:14:30;;;;;;;5.03;2.65;;;10.60;99.90;;;9.93;100.00;96783.31;4929951;28;20130;-74
2022/12/23 10:17:12;;;;;;;2.17;1.40;;;10.70;99.90;;;10.09;100.00;96761.78;4960018;28;20078;-73
2022/12/23 10:19:41;;;;;;;4.13;1.60;;;10.70;99.90;;;10.07;100.00;96761.84;4981004;28;20047;-74
2022/12/23 10:22:34;;;;;;;2.72;1.70;;;10.70;99.90;;;10.01;100.00;96778.59;4968435;28;20098;-74
2022/12/23 10:25:06;;;;;;;4.10;2.53;;;10.70;99.90;;;9.98;100.00;96770.94;4964635;28;20062;-73
2022/12/23 10:27:41;;;;;;;2.88;1.60;;;10.80;99.90;;;10.05;100.00;96768.88;4965969;28;20053;-74
2022/12/23 10:30:20;;;;;;;2.33;1.60;;;10.70;99.90;;;10.07;100.00;96761.84;4963197;28;20396;-74
2022/12/23 10:33:29;;;;;;;4.00;2.55;;;10.70;99.90;;;10.08;100.00;96773.91;4960231;28;20423;-73
2022/12/23 10:36:36;;;;;;;3.67;1.90;;;10.70;99.90;;;10.14;100.00;96767.53;4963006;28;20083;-74
2022/12/23 10:39:20;;;;;;;3.25;2.40;;;10.70;99.90;;;10.19;100.00;96743.03;4962308;28;20138;-74
2022/12/23 10:42:07;;;;;;;6.20;3.67;;;10.70;99.90;;;10.26;100.00;96751.31;4979201;28;20082;-74
2022/12/23 10:44:55;;;;;;;6.38;4.30;;;10.80;99.90;;;10.29;100.00;96735.63;4958587;28;20726;-73
2022/12/23 10:48:15;;;;;;;5.90;4.35;;;10.80;99.90;;;10.18;100.00;96748.31;4962759;28;20050;-74
2022/12/23 10:50:54;;;;;;;6.85;4.00;;;10.90;99.90;;;10.30;100.00;96719.13;4954479;28;20501;-74
2022/12/23 10:53:38;;;;;;;6.10;3.88;;;10.90;99.90;;;10.31;100.00;96732.94;4963711;28;20137;-73
2022/12/23 10:56:07;;;;;;;8.82;3.95;;;10.90;99.90;;;10.44;100.00;96742.53;4977335;28;20134;-73
2022/12/23 10:58:41;;;;;;;9.45;5.05;;;10.90;99.90;;;10.38;100.00;96732.53;4961597;28;20042;-74
2022/12/23 11:01:11;;;;;;;8.07;4.88;;;11.00;99.90;;;10.44;100.00;96715.78;4980734;28;20082;-74
2022/12/23 11:03:58;;;;;;;10.95;6.93;;;10.90;99.90;;;10.43;100.00;96717.53;4954838;28;20074;-73
2022/12/23 11:06:26;;;;;;;9.45;6.22;;;11.00;99.90;;;10.47;100.00;96713.03;4959630;28;20452;-73
2022/12/23 11:09:02;;;;;;;11.30;6.80;;;11.00;99.90;;;10.50;100.00;96710.25;4946861;28;20046;-73